Winston Salem, NC (27157)

2:10 PM EST on February 10, 2016 (GMT -0500)
South Stratford | | Change Station
CLOSE
Current Station
Personal Weather Station
Location: Winston-Salem, NC
Elevation: 810 ft
Nearby Weather Stations

Elev 810 ft 36.05 °N, 80.33 °W | Updated 12 seconds ago

Partly Cloudy
Partly Cloudy
34.0 °F
Feels Like 27 °F
N
8.3
Wind Variable Wind from WSW

Today
High -- | Low -- °F
--% Chance of Precip.
Yesterday
High -- | Low -- °F
Precip. -- in
Pressure 29.90 in
Visibility 10.0 miles
Clouds Mostly Cloudy 5500 ft
Windchill 27 °F
Dew Point 10 °F
Humidity 36%
Rainfall 0.00 in
Snow Depth Not available.
7:14 AM 5:57 PM
Waxing Crescent, 6% visible
METAR KINT 101854Z 28010KT 10SM BKN055 00/M14 A2988 RMK AO2 SLP125 T00001139
Pressure 29.90 in
Visibility 10.0 miles
Clouds Mostly Cloudy 5500 ft
Windchill 27 °F
Dew Point 10 °F
Humidity 36%
Rainfall 0.00 in
Snow Depth Not available.
7:14 AM 5:57 PM
Waxing Crescent, 6% visible
METAR KINT 101854Z 28010KT 10SM BKN055 00/M14 A2988 RMK AO2 SLP125 T00001139

10-Day Weather Forecast

Almanac

Astronomy

Feb. 10, 2016 Rise Set
Actual Time
Civil Twilight
Nautical Twilight
Astronomical Twilight
Moon
Length of Visible Light
Length of Day
Tomorrow will be .
, % of the Moon is Illuminated

Today's Extremes

State Highs State Lows

Community

WunderPhotos

Upload Photos

1,891,921 photos uploaded!

WunderBlog® & News

Nearby

Air Quality

  Air Quality AQ Index Pollutant
Not available.

Snow Depth

Station Depth Elevation

Earthquake Activity

City Distance Mag. Time & Date
Minimum magnitude displayed is 2.5.

Coastal Water Temperatures

Place Temperature

Stations

Nearby Weather Stations

Station Location Temp. Windchill Dew Point Humidity Wind Precip. Elev Updated Type
                   

Watches & Warnings

There are currently no watches in effect.